createdAt,value
2022-11-01T00:00:58.764Z,17.39
2022-11-01T00:06:02.916Z,17.34
2022-11-01T00:11:07.114Z,17.38
2022-11-01T00:16:11.275Z,17.37
2022-11-01T00:21:15.415Z,17.30
2022-11-01T00:26:19.556Z,17.26
2022-11-01T00:31:23.745Z,17.34
2022-11-01T00:36:28.089Z,17.33
2022-11-01T00:41:32.055Z,17.24
2022-11-01T00:46:36.252Z,17.16
2022-11-01T00:51:40.356Z,17.16
2022-11-01T00:56:44.523Z,16.99
2022-11-01T01:01:48.869Z,16.77
2022-11-01T01:11:57.020Z,16.31
2022-11-01T01:17:01.175Z,16.10
2022-11-01T01:22:05.521Z,15.98
2022-11-01T01:27:09.476Z,15.86
2022-11-01T01:32:13.624Z,15.80
2022-11-01T01:37:17.844Z,15.82
2022-11-01T01:42:22.058Z,15.83
2022-11-01T01:47:26.143Z,15.93
2022-11-01T01:52:30.286Z,15.95
2022-11-01T01:57:34.477Z,16.05
2022-11-01T02:02:38.623Z,16.09
2022-11-01T02:07:42.818Z,16.19
2022-11-01T02:12:46.937Z,16.20
2022-11-01T02:17:51.087Z,16.20
2022-11-01T02:22:55.247Z,16.20
2022-11-01T02:27:59.419Z,16.29
2022-11-01T02:33:03.807Z,16.23
2022-11-01T02:38:07.741Z,16.23
2022-11-01T02:43:11.864Z,16.25
2022-11-01T02:48:16.042Z,16.25
2022-11-01T02:53:20.175Z,16.35
2022-11-01T02:58:24.337Z,16.32
2022-11-01T03:03:28.754Z,16.27
2022-11-01T03:08:32.660Z,16.26
2022-11-01T03:13:36.821Z,16.19
2022-11-01T03:18:40.982Z,16.10
2022-11-01T03:23:45.164Z,16.02
2022-11-01T03:28:47.428Z,16.00
2022-11-01T03:33:51.583Z,15.94
2022-11-01T03:38:55.747Z,15.89
2022-11-01T03:43:59.921Z,15.83
2022-11-01T03:49:04.056Z,15.92
2022-11-01T03:54:08.203Z,15.91
2022-11-01T03:59:12.406Z,15.97
2022-11-01T04:04:16.594Z,15.99
2022-11-01T04:09:20.713Z,15.97
2022-11-01T04:14:24.865Z,15.91
2022-11-01T04:19:29.031Z,15.92
2022-11-01T04:24:33.182Z,15.92
2022-11-01T04:29:37.342Z,15.91
2022-11-01T04:34:41.479Z,15.97
2022-11-01T04:39:45.696Z,15.95
2022-11-01T04:44:49.840Z,15.97
2022-11-01T04:49:53.977Z,15.97
2022-11-01T04:54:58.109Z,16.05
2022-11-01T05:00:02.325Z,16.18
2022-11-01T05:05:06.468Z,16.17
2022-11-01T05:10:10.643Z,16.20
2022-11-01T05:15:14.798Z,16.24
2022-11-01T05:20:18.940Z,16.24
2022-11-01T05:25:23.085Z,16.30
2022-11-01T05:30:27.235Z,16.26
2022-11-01T05:35:31.421Z,16.24
2022-11-01T05:40:35.596Z,16.26
2022-11-01T05:45:39.726Z,16.26
2022-11-01T05:50:43.896Z,16.25
2022-11-01T05:55:48.075Z,16.18
2022-11-01T06:00:52.226Z,16.14
2022-11-01T06:05:56.342Z,16.18
2022-11-01T06:11:00.518Z,16.30
2022-11-01T06:16:04.664Z,16.30
2022-11-01T06:21:08.892Z,16.26
2022-11-01T06:26:13.009Z,16.27
2022-11-01T06:31:17.140Z,16.21
2022-11-01T06:36:21.355Z,16.18
2022-11-01T06:41:25.481Z,16.08
2022-11-01T06:46:29.623Z,16.02
2022-11-01T06:51:33.790Z,16.05
2022-11-01T06:56:37.997Z,16.07
2022-11-01T07:01:42.322Z,16.00
2022-11-01T07:06:46.270Z,15.87
2022-11-01T07:11:50.444Z,15.72
2022-11-01T07:16:54.634Z,15.55
2022-11-01T07:21:58.787Z,15.44
2022-11-01T07:27:02.938Z,15.26
2022-11-01T07:32:07.066Z,15.04
2022-11-01T07:37:11.348Z,14.89
2022-11-01T07:42:15.438Z,14.70
2022-11-01T07:47:19.577Z,14.64
2022-11-01T07:52:23.734Z,14.53
2022-11-01T07:57:27.880Z,14.42
2022-11-01T08:02:32.086Z,14.30
2022-11-01T08:07:36.215Z,14.27
2022-11-01T08:12:40.605Z,14.25
2022-11-01T08:17:44.507Z,14.22
2022-11-01T08:22:48.697Z,14.24
2022-11-01T08:27:52.825Z,14.24
2022-11-01T08:32:57.003Z,14.24
2022-11-01T08:38:01.152Z,14.27
2022-11-01T08:43:05.710Z,14.26
2022-11-01T08:48:09.469Z,14.28
2022-11-01T08:53:13.646Z,14.28
2022-11-01T08:58:15.908Z,14.33
2022-11-01T09:03:20.090Z,14.36
2022-11-01T09:08:24.238Z,14.39
2022-11-01T09:13:30.642Z,14.39
2022-11-01T09:18:32.546Z,14.41
2022-11-01T09:23:36.718Z,14.41
2022-11-01T09:28:38.976Z,14.35
2022-11-01T09:33:43.178Z,14.32
2022-11-01T09:38:47.288Z,14.35
2022-11-01T09:43:51.496Z,14.41
2022-11-01T09:48:55.600Z,14.51
2022-11-01T09:53:59.912Z,14.60
2022-11-01T09:59:03.936Z,14.65
2022-11-01T10:04:08.159Z,14.74
2022-11-01T10:09:12.248Z,14.80
2022-11-01T10:14:16.422Z,14.83
2022-11-01T10:19:20.599Z,14.94
2022-11-01T10:24:24.794Z,15.08
2022-11-01T10:29:28.889Z,15.16
2022-11-01T10:34:36.045Z,15.23
2022-11-01T10:39:53.930Z,15.32
2022-11-01T10:44:41.393Z,15.41
2022-11-01T10:50:04.985Z,15.47
2022-11-01T10:54:49.716Z,15.49
2022-11-01T10:59:53.866Z,15.57
2022-11-01T11:04:58.042Z,15.64
2022-11-01T11:15:06.333Z,15.87
2022-11-01T11:20:10.517Z,15.95
2022-11-01T11:25:14.684Z,15.96
2022-11-01T11:30:18.841Z,16.09
2022-11-01T11:35:22.975Z,16.20
2022-11-01T11:40:27.185Z,16.26
2022-11-01T11:45:31.331Z,16.26
2022-11-01T11:50:35.458Z,16.40
2022-11-01T11:55:39.772Z,16.39
2022-11-01T12:00:43.781Z,16.56
2022-11-01T12:05:47.963Z,16.58
2022-11-01T12:10:52.092Z,16.61
2022-11-01T12:15:56.232Z,16.73
2022-11-01T12:21:00.455Z,16.62
2022-11-01T12:26:04.569Z,16.76
2022-11-01T12:31:08.777Z,16.82
2022-11-01T12:41:17.041Z,16.87
2022-11-01T12:46:21.204Z,16.97
2022-11-01T12:51:25.409Z,16.98
2022-11-01T12:56:29.522Z,16.94
2022-11-01T13:01:33.869Z,16.88
2022-11-01T13:06:37.866Z,16.95
2022-11-01T13:11:42.033Z,17.00
2022-11-01T13:16:46.139Z,16.98
2022-11-01T13:21:50.366Z,17.11
2022-11-01T13:26:54.501Z,17.12
2022-11-01T13:31:58.646Z,17.11
2022-11-01T13:37:02.809Z,17.01
2022-11-01T13:42:06.936Z,17.07
2022-11-01T13:47:11.154Z,17.04
2022-11-01T13:52:15.329Z,17.02
2022-11-01T13:57:44.880Z,17.10
2022-11-01T14:02:23.962Z,17.04
2022-11-01T14:07:27.801Z,17.05
2022-11-01T14:12:31.949Z,17.06
2022-11-01T14:17:36.093Z,16.95
2022-11-01T14:22:40.385Z,16.85
2022-11-01T14:27:48.745Z,16.88
2022-11-01T14:32:48.571Z,16.83
2022-11-01T14:37:52.744Z,16.80
2022-11-01T14:42:56.849Z,16.80
2022-11-01T14:48:01.550Z,16.75
2022-11-01T14:53:05.222Z,16.65
2022-11-01T14:58:07.557Z,16.57
2022-11-01T15:03:11.666Z,16.58
2022-11-01T15:08:15.826Z,16.93
2022-11-01T15:13:19.996Z,16.89
2022-11-01T15:18:24.160Z,17.10
2022-11-01T15:23:28.308Z,17.04
2022-11-01T15:28:32.432Z,16.43
2022-11-01T15:33:36.601Z,16.03
2022-11-01T15:38:40.742Z,15.78
2022-11-01T15:43:45.890Z,15.52
2022-11-01T15:48:49.041Z,15.31
2022-11-01T15:53:53.269Z,15.13
2022-11-01T15:58:57.400Z,14.95
2022-11-01T16:04:01.517Z,14.77
2022-11-01T16:09:05.696Z,14.60
2022-11-01T16:14:09.901Z,14.44
2022-11-01T16:19:14.041Z,14.48
2022-11-01T16:24:18.203Z,14.27
2022-11-01T16:29:22.340Z,14.15
2022-11-01T16:34:26.520Z,14.06
2022-11-01T16:39:30.686Z,14.02
2022-11-01T16:44:34.818Z,13.95
2022-11-01T16:49:38.991Z,14.01
2022-11-01T16:54:43.170Z,13.94
2022-11-01T16:59:47.299Z,13.81
2022-11-01T17:04:51.493Z,13.81
2022-11-01T17:09:55.601Z,13.76
2022-11-01T17:14:59.820Z,13.74
2022-11-01T17:20:03.977Z,13.61
2022-11-01T17:25:08.092Z,13.59
2022-11-01T17:30:12.289Z,13.54
2022-11-01T17:35:16.600Z,13.57
2022-11-01T17:40:20.649Z,13.44
2022-11-01T17:45:24.716Z,13.41
2022-11-01T17:50:28.952Z,13.33
2022-11-01T17:55:33.048Z,13.27
2022-11-01T18:00:37.212Z,13.19
2022-11-01T18:05:41.407Z,13.11
2022-11-01T18:10:45.540Z,13.01
2022-11-01T18:15:49.722Z,13.04
2022-11-01T18:20:53.913Z,13.00
2022-11-01T18:25:58.031Z,12.93
2022-11-01T18:31:02.223Z,12.84
2022-11-01T18:36:06.334Z,12.79
2022-11-01T18:41:13.174Z,12.81
2022-11-01T18:46:26.280Z,12.75
2022-11-01T18:51:18.845Z,12.75
2022-11-01T18:56:23.010Z,12.61
2022-11-01T19:01:27.323Z,12.51
2022-11-01T19:11:35.499Z,12.41
2022-11-01T19:16:39.613Z,12.43
2022-11-01T19:21:43.788Z,12.48
2022-11-01T19:26:47.953Z,12.39
2022-11-01T19:31:52.133Z,12.25
2022-11-01T19:36:56.246Z,12.22
2022-11-01T19:42:00.448Z,12.23
2022-11-01T19:47:04.630Z,12.30
2022-11-01T19:52:08.725Z,12.34
2022-11-01T19:57:13.004Z,12.31
2022-11-01T20:02:17.224Z,12.30
2022-11-01T20:07:21.253Z,12.23
2022-11-01T20:12:25.381Z,12.21
2022-11-01T20:17:29.525Z,12.17
2022-11-01T20:22:33.730Z,12.17
2022-11-01T20:27:36.012Z,12.09
2022-11-01T20:32:40.131Z,12.00
2022-11-01T20:37:44.268Z,11.96
2022-11-01T20:42:48.488Z,12.04
2022-11-01T20:47:52.632Z,11.99
2022-11-01T20:52:56.783Z,11.95
2022-11-01T20:58:01.317Z,11.99
2022-11-01T21:03:05.518Z,11.95
2022-11-01T21:08:09.275Z,11.92
2022-11-01T21:13:17.640Z,11.95
2022-11-01T21:18:17.566Z,11.96
2022-11-01T21:23:21.782Z,11.90
2022-11-01T21:28:25.937Z,11.82
2022-11-01T21:33:30.051Z,11.75
2022-11-01T21:38:34.216Z,11.80
2022-11-01T21:43:38.409Z,11.76
2022-11-01T21:48:42.570Z,11.78
2022-11-01T21:53:46.676Z,11.75
2022-11-01T21:58:50.883Z,11.75
2022-11-01T22:03:55.035Z,11.90
2022-11-01T22:08:59.220Z,11.84
2022-11-01T22:14:03.358Z,11.81
2022-11-01T22:19:07.537Z,11.82
2022-11-01T22:24:11.714Z,11.90
2022-11-01T22:29:15.820Z,11.92
2022-11-01T22:34:19.981Z,11.96
2022-11-01T22:39:24.143Z,12.03
2022-11-01T22:44:28.303Z,12.05
2022-11-01T22:49:32.480Z,12.06
2022-11-01T22:54:36.643Z,12.04
2022-11-01T22:59:40.774Z,12.04
2022-11-01T23:04:44.965Z,12.16
2022-11-01T23:09:49.143Z,12.19
2022-11-01T23:14:53.275Z,12.34
2022-11-01T23:19:57.456Z,12.39
2022-11-01T23:25:01.650Z,12.57
2022-11-01T23:30:05.769Z,12.60
2022-11-01T23:35:09.924Z,12.57
2022-11-01T23:40:14.086Z,12.59
2022-11-01T23:45:18.243Z,12.53
2022-11-01T23:50:22.418Z,12.59
2022-11-01T23:55:26.562Z,12.61
